sensor_id;sensor_type;location;lat;lon;timestamp;P1;durP1;ratioP1;P2;durP2;ratioP2
68647;SDS011;55632;51.962;16.116;2024-01-27T00:00:01;11.63;;;3.00;;
68647;SDS011;55632;51.962;16.116;2024-01-27T00:05:02;11.52;;;2.75;;
68647;SDS011;55632;51.962;16.116;2024-01-27T00:10:03;10.65;;;2.33;;
68647;SDS011;55632;51.962;16.116;2024-01-27T00:15:06;8.05;;;2.22;;
68647;SDS011;55632;51.962;16.116;2024-01-27T00:20:08;7.70;;;1.98;;
68647;SDS011;55632;51.962;16.116;2024-01-27T00:25:09;6.63;;;1.63;;
68647;SDS011;55632;51.962;16.116;2024-01-27T00:30:10;15.80;;;3.38;;
68647;SDS011;55632;51.962;16.116;2024-01-27T00:35:12;13.63;;;2.53;;
68647;SDS011;55632;51.962;16.116;2024-01-27T00:40:15;15.55;;;2.22;;
68647;SDS011;55632;51.962;16.116;2024-01-27T00:45:16;13.20;;;2.17;;
68647;SDS011;55632;51.962;16.116;2024-01-27T00:50:17;13.23;;;2.33;;
68647;SDS011;55632;51.962;16.116;2024-01-27T00:55:18;11.02;;;2.60;;
68647;SDS011;55632;51.962;16.116;2024-01-27T01:00:18;6.25;;;1.83;;
68647;SDS011;55632;51.962;16.116;2024-01-27T01:05:19;9.48;;;1.70;;
68647;SDS011;55632;51.962;16.116;2024-01-27T01:10:20;14.18;;;2.53;;
68647;SDS011;55632;51.962;16.116;2024-01-27T01:15:21;14.77;;;2.45;;
68647;SDS011;55632;51.962;16.116;2024-01-27T01:20:22;14.05;;;2.22;;
68647;SDS011;55632;51.962;16.116;2024-01-27T01:25:23;11.48;;;2.40;;
68647;SDS011;55632;51.962;16.116;2024-01-27T01:30:24;7.10;;;2.08;;
68647;SDS011;55632;51.962;16.116;2024-01-27T01:35:24;12.82;;;2.13;;
68647;SDS011;55632;51.962;16.116;2024-01-27T01:40:25;13.80;;;2.28;;
68647;SDS011;55632;51.962;16.116;2024-01-27T01:45:26;6.82;;;2.20;;
68647;SDS011;55632;51.962;16.116;2024-01-27T01:55:27;9.23;;;1.77;;
68647;SDS011;55632;51.962;16.116;2024-01-27T02:05:29;11.00;;;1.48;;
68647;SDS011;55632;51.962;16.116;2024-01-27T02:10:31;8.13;;;2.10;;
68647;SDS011;55632;51.962;16.116;2024-01-27T02:15:36;13.05;;;2.35;;
68647;SDS011;55632;51.962;16.116;2024-01-27T02:20:37;7.97;;;1.95;;
68647;SDS011;55632;51.962;16.116;2024-01-27T02:25:38;8.05;;;1.95;;
68647;SDS011;55632;51.962;16.116;2024-01-27T02:30:39;7.93;;;2.00;;
68647;SDS011;55632;51.962;16.116;2024-01-27T02:40:40;14.90;;;2.00;;
68647;SDS011;55632;51.962;16.116;2024-01-27T02:45:41;11.35;;;1.92;;
68647;SDS011;55632;51.962;16.116;2024-01-27T02:55:42;9.73;;;1.67;;
68647;SDS011;55632;51.962;16.116;2024-01-27T03:00:43;13.40;;;1.88;;
68647;SDS011;55632;51.962;16.116;2024-01-27T03:05:44;14.88;;;2.28;;
68647;SDS011;55632;51.962;16.116;2024-01-27T03:10:44;9.98;;;2.00;;
68647;SDS011;55632;51.962;16.116;2024-01-27T03:15:45;11.63;;;1.98;;
68647;SDS011;55632;51.962;16.116;2024-01-27T03:20:46;9.77;;;2.15;;
68647;SDS011;55632;51.962;16.116;2024-01-27T03:25:48;10.15;;;2.20;;
68647;SDS011;55632;51.962;16.116;2024-01-27T03:30:48;13.50;;;2.08;;
68647;SDS011;55632;51.962;16.116;2024-01-27T03:35:49;7.65;;;1.85;;
68647;SDS011;55632;51.962;16.116;2024-01-27T03:40:50;6.65;;;2.03;;
68647;SDS011;55632;51.962;16.116;2024-01-27T03:45:50;8.27;;;1.90;;
68647;SDS011;55632;51.962;16.116;2024-01-27T03:55:52;10.68;;;2.40;;
68647;SDS011;55632;51.962;16.116;2024-01-27T04:00:53;14.23;;;2.33;;
68647;SDS011;55632;51.962;16.116;2024-01-27T04:05:54;6.43;;;1.95;;
68647;SDS011;55632;51.962;16.116;2024-01-27T04:15:55;12.65;;;2.65;;
68647;SDS011;55632;51.962;16.116;2024-01-27T04:20:59;10.70;;;2.80;;
68647;SDS011;55632;51.962;16.116;2024-01-27T04:26:01;6.45;;;1.23;;
68647;SDS011;55632;51.962;16.116;2024-01-27T04:31:04;10.63;;;1.60;;
68647;SDS011;55632;51.962;16.116;2024-01-27T04:36:04;10.60;;;1.58;;
68647;SDS011;55632;51.962;16.116;2024-01-27T04:41:07;13.05;;;2.58;;
68647;SDS011;55632;51.962;16.116;2024-01-27T04:46:07;5.22;;;1.88;;
68647;SDS011;55632;51.962;16.116;2024-01-27T04:51:08;11.32;;;2.03;;
68647;SDS011;55632;51.962;16.116;2024-01-27T04:56:09;13.55;;;2.30;;
68647;SDS011;55632;51.962;16.116;2024-01-27T05:01:12;9.48;;;1.73;;
68647;SDS011;55632;51.962;16.116;2024-01-27T05:06:13;10.93;;;2.53;;
68647;SDS011;55632;51.962;16.116;2024-01-27T05:11:30;13.18;;;2.35;;
68647;SDS011;55632;51.962;16.116;2024-01-27T05:16:35;12.10;;;3.45;;
68647;SDS011;55632;51.962;16.116;2024-01-27T05:26:38;13.70;;;2.72;;
68647;SDS011;55632;51.962;16.116;2024-01-27T05:36:39;9.75;;;2.33;;
68647;SDS011;55632;51.962;16.116;2024-01-27T05:46:41;16.35;;;3.13;;
68647;SDS011;55632;51.962;16.116;2024-01-27T05:56:43;14.60;;;3.88;;
68647;SDS011;55632;51.962;16.116;2024-01-27T06:06:47;8.10;;;1.77;;
68647;SDS011;55632;51.962;16.116;2024-01-27T06:11:48;8.90;;;1.83;;
68647;SDS011;55632;51.962;16.116;2024-01-27T06:16:49;15.40;;;3.03;;
68647;SDS011;55632;51.962;16.116;2024-01-27T06:21:51;10.80;;;2.22;;
68647;SDS011;55632;51.962;16.116;2024-01-27T06:26:52;16.98;;;3.10;;
68647;SDS011;55632;51.962;16.116;2024-01-27T06:36:53;12.82;;;2.42;;
68647;SDS011;55632;51.962;16.116;2024-01-27T06:41:54;20.85;;;3.95;;
68647;SDS011;55632;51.962;16.116;2024-01-27T06:51:56;16.08;;;2.95;;
68647;SDS011;55632;51.962;16.116;2024-01-27T06:57:00;16.27;;;3.50;;
68647;SDS011;55632;51.962;16.116;2024-01-27T07:02:02;15.02;;;3.00;;
68647;SDS011;55632;51.962;16.116;2024-01-27T07:07:03;13.32;;;3.00;;
68647;SDS011;55632;51.962;16.116;2024-01-27T07:12:05;18.30;;;3.10;;
68647;SDS011;55632;51.962;16.116;2024-01-27T07:17:08;16.95;;;2.83;;
68647;SDS011;55632;51.962;16.116;2024-01-27T07:22:13;47.03;;;12.55;;
68647;SDS011;55632;51.962;16.116;2024-01-27T07:27:15;16.83;;;3.50;;
68647;SDS011;55632;51.962;16.116;2024-01-27T07:32:15;15.27;;;2.72;;
68647;SDS011;55632;51.962;16.116;2024-01-27T07:37:17;11.80;;;2.58;;
68647;SDS011;55632;51.962;16.116;2024-01-27T07:42:19;17.30;;;3.75;;
68647;SDS011;55632;51.962;16.116;2024-01-27T07:47:20;10.52;;;2.88;;
68647;SDS011;55632;51.962;16.116;2024-01-27T07:52:20;8.88;;;2.10;;
68647;SDS011;55632;51.962;16.116;2024-01-27T07:57:22;14.93;;;3.03;;
68647;SDS011;55632;51.962;16.116;2024-01-27T08:02:22;19.33;;;3.50;;
68647;SDS011;55632;51.962;16.116;2024-01-27T08:07:23;19.95;;;3.78;;
68647;SDS011;55632;51.962;16.116;2024-01-27T08:12:25;15.65;;;2.50;;
68647;SDS011;55632;51.962;16.116;2024-01-27T08:17:26;14.98;;;3.00;;
68647;SDS011;55632;51.962;16.116;2024-01-27T08:22:27;20.52;;;5.80;;
68647;SDS011;55632;51.962;16.116;2024-01-27T08:27:29;19.67;;;4.05;;
68647;SDS011;55632;51.962;16.116;2024-01-27T08:32:30;28.70;;;11.65;;
68647;SDS011;55632;51.962;16.116;2024-01-27T08:37:31;31.15;;;16.27;;
68647;SDS011;55632;51.962;16.116;2024-01-27T08:42:38;135.20;;;54.03;;
68647;SDS011;55632;51.962;16.116;2024-01-27T08:47:40;67.75;;;30.80;;
68647;SDS011;55632;51.962;16.116;2024-01-27T08:52:40;68.70;;;24.42;;
68647;SDS011;55632;51.962;16.116;2024-01-27T08:57:41;50.28;;;17.02;;
68647;SDS011;55632;51.962;16.116;2024-01-27T09:02:42;35.55;;;15.60;;
68647;SDS011;55632;51.962;16.116;2024-01-27T09:07:43;18.60;;;4.97;;
68647;SDS011;55632;51.962;16.116;2024-01-27T09:12:44;12.45;;;4.03;;
68647;SDS011;55632;51.962;16.116;2024-01-27T09:17:45;9.85;;;2.38;;
68647;SDS011;55632;51.962;16.116;2024-01-27T09:22:46;13.65;;;3.97;;
68647;SDS011;55632;51.962;16.116;2024-01-27T09:27:47;15.80;;;4.68;;
68647;SDS011;55632;51.962;16.116;2024-01-27T09:32:48;13.82;;;3.78;;
68647;SDS011;55632;51.962;16.116;2024-01-27T09:37:49;11.35;;;3.40;;
68647;SDS011;55632;51.962;16.116;2024-01-27T09:42:50;29.48;;;8.43;;
68647;SDS011;55632;51.962;16.116;2024-01-27T09:47:58;87.72;;;31.98;;
68647;SDS011;55632;51.962;16.116;2024-01-27T09:53:00;74.95;;;29.33;;
68647;SDS011;55632;51.962;16.116;2024-01-27T09:58:01;64.47;;;21.80;;
68647;SDS011;55632;51.962;16.116;2024-01-27T10:03:02;76.10;;;38.00;;
68647;SDS011;55632;51.962;16.116;2024-01-27T10:08:06;17.98;;;5.28;;
68647;SDS011;55632;51.962;16.116;2024-01-27T10:13:08;18.60;;;5.80;;
68647;SDS011;55632;51.962;16.116;2024-01-27T10:18:12;29.15;;;8.30;;
68647;SDS011;55632;51.962;16.116;2024-01-27T10:23:15;42.00;;;11.15;;
68647;SDS011;55632;51.962;16.116;2024-01-27T10:28:16;186.77;;;36.90;;
68647;SDS011;55632;51.962;16.116;2024-01-27T10:33:17;211.25;;;36.90;;
68647;SDS011;55632;51.962;16.116;2024-01-27T10:38:21;110.60;;;23.70;;
68647;SDS011;55632;51.962;16.116;2024-01-27T10:43:22;47.55;;;13.57;;
68647;SDS011;55632;51.962;16.116;2024-01-27T10:48:23;179.27;;;47.65;;
68647;SDS011;55632;51.962;16.116;2024-01-27T10:53:26;46.25;;;12.63;;
68647;SDS011;55632;51.962;16.116;2024-01-27T10:58:31;35.90;;;12.15;;
68647;SDS011;55632;51.962;16.116;2024-01-27T11:03:40;35.28;;;12.52;;
68647;SDS011;55632;51.962;16.116;2024-01-27T11:08:43;23.70;;;7.25;;
68647;SDS011;55632;51.962;16.116;2024-01-27T11:13:46;19.83;;;5.03;;
68647;SDS011;55632;51.962;16.116;2024-01-27T11:18:49;13.85;;;3.25;;
68647;SDS011;55632;51.962;16.116;2024-01-27T11:23:49;17.73;;;5.22;;
68647;SDS011;55632;51.962;16.116;2024-01-27T11:29:05;15.57;;;4.40;;
68647;SDS011;55632;51.962;16.116;2024-01-27T11:34:09;14.80;;;3.08;;
68647;SDS011;55632;51.962;16.116;2024-01-27T11:39:29;13.65;;;4.95;;
68647;SDS011;55632;51.962;16.116;2024-01-27T11:44:33;30.90;;;9.93;;
68647;SDS011;55632;51.962;16.116;2024-01-27T11:49:34;12.63;;;4.25;;
68647;SDS011;55632;51.962;16.116;2024-01-27T11:54:36;17.77;;;4.25;;
68647;SDS011;55632;51.962;16.116;2024-01-27T11:59:38;14.27;;;3.38;;
68647;SDS011;55632;51.962;16.116;2024-01-27T12:04:39;16.23;;;5.78;;
68647;SDS011;55632;51.962;16.116;2024-01-27T12:09:40;15.52;;;4.25;;
68647;SDS011;55632;51.962;16.116;2024-01-27T12:14:41;60.88;;;24.73;;
68647;SDS011;55632;51.962;16.116;2024-01-27T12:19:46;26.40;;;9.48;;
68647;SDS011;55632;51.962;16.116;2024-01-27T12:24:48;275.98;;;117.50;;
68647;SDS011;55632;51.962;16.116;2024-01-27T12:29:49;91.63;;;20.48;;
68647;SDS011;55632;51.962;16.116;2024-01-27T12:34:50;218.40;;;57.70;;
68647;SDS011;55632;51.962;16.116;2024-01-27T12:39:51;221.48;;;45.90;;
68647;SDS011;55632;51.962;16.116;2024-01-27T12:44:52;188.10;;;35.50;;
68647;SDS011;55632;51.962;16.116;2024-01-27T12:49:53;170.15;;;38.15;;
68647;SDS011;55632;51.962;16.116;2024-01-27T12:54:55;71.35;;;18.17;;
68647;SDS011;55632;51.962;16.116;2024-01-27T12:59:56;318.88;;;135.55;;
68647;SDS011;55632;51.962;16.116;2024-01-27T13:04:56;139.18;;;28.35;;
68647;SDS011;55632;51.962;16.116;2024-01-27T13:09:57;28.23;;;7.32;;
68647;SDS011;55632;51.962;16.116;2024-01-27T13:14:58;60.85;;;13.63;;
68647;SDS011;55632;51.962;16.116;2024-01-27T13:19:59;30.23;;;7.63;;
68647;SDS011;55632;51.962;16.116;2024-01-27T13:25:00;44.50;;;13.65;;
68647;SDS011;55632;51.962;16.116;2024-01-27T13:30:04;121.35;;;21.88;;
68647;SDS011;55632;51.962;16.116;2024-01-27T13:35:08;85.40;;;24.20;;
68647;SDS011;55632;51.962;16.116;2024-01-27T13:40:09;33.13;;;11.52;;
68647;SDS011;55632;51.962;16.116;2024-01-27T13:45:10;40.13;;;12.60;;
68647;SDS011;55632;51.962;16.116;2024-01-27T13:50:11;65.20;;;35.00;;
68647;SDS011;55632;51.962;16.116;2024-01-27T13:55:12;65.80;;;16.45;;
68647;SDS011;55632;51.962;16.116;2024-01-27T14:00:13;57.63;;;16.45;;
68647;SDS011;55632;51.962;16.116;2024-01-27T14:05:14;50.30;;;15.18;;
68647;SDS011;55632;51.962;16.116;2024-01-27T14:10:15;69.90;;;19.10;;
68647;SDS011;55632;51.962;16.116;2024-01-27T14:15:16;99.90;;;33.80;;
68647;SDS011;55632;51.962;16.116;2024-01-27T14:20:17;46.05;;;13.10;;
68647;SDS011;55632;51.962;16.116;2024-01-27T14:25:18;111.97;;;27.05;;
68647;SDS011;55632;51.962;16.116;2024-01-27T14:30:19;38.30;;;13.88;;
68647;SDS011;55632;51.962;16.116;2024-01-27T14:35:20;47.67;;;12.23;;
68647;SDS011;55632;51.962;16.116;2024-01-27T14:40:26;56.33;;;15.10;;
68647;SDS011;55632;51.962;16.116;2024-01-27T14:45:27;47.95;;;14.40;;
68647;SDS011;55632;51.962;16.116;2024-01-27T14:50:28;82.68;;;27.25;;
68647;SDS011;55632;51.962;16.116;2024-01-27T14:55:30;148.43;;;48.33;;
68647;SDS011;55632;51.962;16.116;2024-01-27T15:00:33;101.43;;;31.65;;
68647;SDS011;55632;51.962;16.116;2024-01-27T15:05:34;39.88;;;12.88;;
68647;SDS011;55632;51.962;16.116;2024-01-27T15:10:37;19.98;;;6.72;;
68647;SDS011;55632;51.962;16.116;2024-01-27T15:15:40;54.28;;;19.27;;
68647;SDS011;55632;51.962;16.116;2024-01-27T15:20:41;35.45;;;10.32;;
68647;SDS011;55632;51.962;16.116;2024-01-27T15:25:42;23.17;;;6.50;;
68647;SDS011;55632;51.962;16.116;2024-01-27T15:30:46;31.80;;;11.15;;
68647;SDS011;55632;51.962;16.116;2024-01-27T15:35:49;33.03;;;11.30;;
68647;SDS011;55632;51.962;16.116;2024-01-27T15:40:52;54.08;;;22.92;;
68647;SDS011;55632;51.962;16.116;2024-01-27T15:45:53;46.67;;;20.70;;
68647;SDS011;55632;51.962;16.116;2024-01-27T15:50:57;26.20;;;7.90;;
68647;SDS011;55632;51.962;16.116;2024-01-27T15:55:59;43.20;;;16.20;;
68647;SDS011;55632;51.962;16.116;2024-01-27T16:01:00;79.03;;;27.48;;
68647;SDS011;55632;51.962;16.116;2024-01-27T16:06:02;37.40;;;11.02;;
68647;SDS011;55632;51.962;16.116;2024-01-27T16:11:05;50.58;;;13.27;;
68647;SDS011;55632;51.962;16.116;2024-01-27T16:16:06;33.65;;;9.15;;
68647;SDS011;55632;51.962;16.116;2024-01-27T16:21:07;35.22;;;10.60;;
68647;SDS011;55632;51.962;16.116;2024-01-27T16:26:08;56.03;;;18.45;;
68647;SDS011;55632;51.962;16.116;2024-01-27T16:31:09;76.32;;;21.42;;
68647;SDS011;55632;51.962;16.116;2024-01-27T16:36:11;87.47;;;28.48;;
68647;SDS011;55632;51.962;16.116;2024-01-27T16:41:12;97.55;;;34.47;;
68647;SDS011;55632;51.962;16.116;2024-01-27T16:46:13;145.23;;;51.63;;
68647;SDS011;55632;51.962;16.116;2024-01-27T16:51:14;98.88;;;40.28;;
68647;SDS011;55632;51.962;16.116;2024-01-27T16:56:14;65.72;;;29.35;;
68647;SDS011;55632;51.962;16.116;2024-01-27T17:01:16;36.42;;;11.45;;
68647;SDS011;55632;51.962;16.116;2024-01-27T17:06:17;43.63;;;12.07;;
68647;SDS011;55632;51.962;16.116;2024-01-27T17:11:19;28.95;;;7.53;;
68647;SDS011;55632;51.962;16.116;2024-01-27T17:16:20;41.83;;;12.05;;
68647;SDS011;55632;51.962;16.116;2024-01-27T17:21:21;63.13;;;15.95;;
68647;SDS011;55632;51.962;16.116;2024-01-27T17:26:23;67.30;;;14.60;;
68647;SDS011;55632;51.962;16.116;2024-01-27T17:31:25;40.17;;;9.10;;
68647;SDS011;55632;51.962;16.116;2024-01-27T17:36:26;48.47;;;11.75;;
68647;SDS011;55632;51.962;16.116;2024-01-27T17:41:27;48.30;;;12.00;;
68647;SDS011;55632;51.962;16.116;2024-01-27T17:46:28;28.05;;;6.78;;
68647;SDS011;55632;51.962;16.116;2024-01-27T17:51:30;63.10;;;24.63;;
68647;SDS011;55632;51.962;16.116;2024-01-27T17:56:31;65.30;;;22.55;;
68647;SDS011;55632;51.962;16.116;2024-01-27T18:01:33;159.05;;;44.97;;
68647;SDS011;55632;51.962;16.116;2024-01-27T18:06:39;78.13;;;28.48;;
68647;SDS011;55632;51.962;16.116;2024-01-27T18:11:40;35.45;;;12.07;;
68647;SDS011;55632;51.962;16.116;2024-01-27T18:16:41;22.42;;;6.57;;
68647;SDS011;55632;51.962;16.116;2024-01-27T18:21:42;87.20;;;31.05;;
68647;SDS011;55632;51.962;16.116;2024-01-27T18:26:43;20.90;;;7.10;;
68647;SDS011;55632;51.962;16.116;2024-01-27T18:31:45;24.52;;;6.25;;
68647;SDS011;55632;51.962;16.116;2024-01-27T18:36:46;17.02;;;3.95;;
68647;SDS011;55632;51.962;16.116;2024-01-27T18:41:47;16.23;;;3.92;;
68647;SDS011;55632;51.962;16.116;2024-01-27T18:46:50;16.27;;;3.67;;
68647;SDS011;55632;51.962;16.116;2024-01-27T18:51:52;45.63;;;16.67;;
68647;SDS011;55632;51.962;16.116;2024-01-27T18:56:55;17.05;;;5.72;;
68647;SDS011;55632;51.962;16.116;2024-01-27T19:02:01;21.63;;;6.68;;
68647;SDS011;55632;51.962;16.116;2024-01-27T19:07:02;50.08;;;16.05;;
68647;SDS011;55632;51.962;16.116;2024-01-27T19:12:03;66.65;;;21.25;;
68647;SDS011;55632;51.962;16.116;2024-01-27T19:17:09;32.88;;;11.10;;
68647;SDS011;55632;51.962;16.116;2024-01-27T19:22:09;41.10;;;14.43;;
68647;SDS011;55632;51.962;16.116;2024-01-27T19:27:10;39.13;;;13.75;;
68647;SDS011;55632;51.962;16.116;2024-01-27T19:32:16;27.50;;;8.90;;
68647;SDS011;55632;51.962;16.116;2024-01-27T19:37:17;27.63;;;8.68;;
68647;SDS011;55632;51.962;16.116;2024-01-27T19:42:18;26.83;;;6.10;;
68647;SDS011;55632;51.962;16.116;2024-01-27T19:47:19;57.42;;;16.05;;
68647;SDS011;55632;51.962;16.116;2024-01-27T19:52:20;23.77;;;9.10;;
68647;SDS011;55632;51.962;16.116;2024-01-27T19:57:23;29.85;;;9.98;;
68647;SDS011;55632;51.962;16.116;2024-01-27T20:02:27;97.20;;;40.60;;
68647;SDS011;55632;51.962;16.116;2024-01-27T20:07:28;32.45;;;8.48;;
68647;SDS011;55632;51.962;16.116;2024-01-27T20:12:31;30.85;;;9.30;;
68647;SDS011;55632;51.962;16.116;2024-01-27T20:17:32;24.02;;;8.32;;
68647;SDS011;55632;51.962;16.116;2024-01-27T20:22:35;17.38;;;6.18;;
68647;SDS011;55632;51.962;16.116;2024-01-27T20:27:36;26.25;;;7.03;;
68647;SDS011;55632;51.962;16.116;2024-01-27T20:32:37;25.58;;;8.57;;
68647;SDS011;55632;51.962;16.116;2024-01-27T20:37:39;29.70;;;10.55;;
68647;SDS011;55632;51.962;16.116;2024-01-27T20:42:39;25.73;;;6.20;;
68647;SDS011;55632;51.962;16.116;2024-01-27T20:47:40;19.50;;;5.75;;
68647;SDS011;55632;51.962;16.116;2024-01-27T20:52:46;27.10;;;7.15;;
68647;SDS011;55632;51.962;16.116;2024-01-27T20:57:49;16.75;;;4.72;;
68647;SDS011;55632;51.962;16.116;2024-01-27T21:02:50;15.23;;;4.53;;
68647;SDS011;55632;51.962;16.116;2024-01-27T21:07:52;13.32;;;4.78;;
68647;SDS011;55632;51.962;16.116;2024-01-27T21:12:52;10.60;;;3.15;;
68647;SDS011;55632;51.962;16.116;2024-01-27T21:17:56;15.02;;;4.00;;
68647;SDS011;55632;51.962;16.116;2024-01-27T21:22:57;16.52;;;5.05;;
68647;SDS011;55632;51.962;16.116;2024-01-27T21:27:59;12.20;;;4.25;;
68647;SDS011;55632;51.962;16.116;2024-01-27T21:33:02;24.00;;;5.80;;
68647;SDS011;55632;51.962;16.116;2024-01-27T21:38:03;14.40;;;3.88;;
68647;SDS011;55632;51.962;16.116;2024-01-27T21:43:05;18.10;;;5.07;;
68647;SDS011;55632;51.962;16.116;2024-01-27T21:48:10;15.75;;;5.35;;
68647;SDS011;55632;51.962;16.116;2024-01-27T21:53:10;18.73;;;4.57;;
68647;SDS011;55632;51.962;16.116;2024-01-27T21:58:11;22.38;;;5.43;;
68647;SDS011;55632;51.962;16.116;2024-01-27T22:03:12;19.05;;;6.68;;
68647;SDS011;55632;51.962;16.116;2024-01-27T22:08:13;18.80;;;5.63;;
68647;SDS011;55632;51.962;16.116;2024-01-27T22:13:14;21.27;;;5.10;;
68647;SDS011;55632;51.962;16.116;2024-01-27T22:18:15;15.10;;;4.85;;
68647;SDS011;55632;51.962;16.116;2024-01-27T22:23:15;24.17;;;4.80;;
68647;SDS011;55632;51.962;16.116;2024-01-27T22:28:18;17.60;;;6.25;;
68647;SDS011;55632;51.962;16.116;2024-01-27T22:33:19;14.77;;;4.10;;
68647;SDS011;55632;51.962;16.116;2024-01-27T22:38:20;19.23;;;4.55;;
68647;SDS011;55632;51.962;16.116;2024-01-27T22:43:23;18.00;;;4.07;;
68647;SDS011;55632;51.962;16.116;2024-01-27T22:48:24;17.40;;;4.20;;
68647;SDS011;55632;51.962;16.116;2024-01-27T22:53:26;16.48;;;4.60;;
68647;SDS011;55632;51.962;16.116;2024-01-27T22:58:27;20.73;;;3.75;;
68647;SDS011;55632;51.962;16.116;2024-01-27T23:03:31;18.10;;;4.55;;
68647;SDS011;55632;51.962;16.116;2024-01-27T23:08:32;19.95;;;3.70;;
68647;SDS011;55632;51.962;16.116;2024-01-27T23:13:34;14.15;;;4.85;;
68647;SDS011;55632;51.962;16.116;2024-01-27T23:18:35;14.07;;;3.95;;
68647;SDS011;55632;51.962;16.116;2024-01-27T23:23:36;14.60;;;4.07;;
68647;SDS011;55632;51.962;16.116;2024-01-27T23:28:37;17.10;;;4.55;;
68647;SDS011;55632;51.962;16.116;2024-01-27T23:33:39;13.35;;;4.30;;
68647;SDS011;55632;51.962;16.116;2024-01-27T23:38:40;14.95;;;3.72;;
68647;SDS011;55632;51.962;16.116;2024-01-27T23:43:43;23.15;;;4.75;;
68647;SDS011;55632;51.962;16.116;2024-01-27T23:48:44;15.60;;;4.28;;
68647;SDS011;55632;51.962;16.116;2024-01-27T23:53:45;15.30;;;5.32;;
68647;SDS011;55632;51.962;16.116;2024-01-27T23:58:45;30.80;;;6.10;;
